Latest Weather Observations for White Cliffs AWS

IDN60801

Issued at 9:42 am EDT Thursday 23 January 2020 (issued every 10 minutes, with the page automatically refreshed every 10 minutes)

About weather observations | Map of weather stations | Latest weather observations for NSW | Other Formats
Station Details ID: 046129 Name: WHITE CLIFFS AWS Lat: -30.85 Lon: 143.07 Height: 158.0 m
Data from the previous 72 hours. | See also: Recent months at White Cliffs AWS
Date/Time
EDT
Temp
°C
App
Temp
°C
Dew
Point
°C
Rel
Hum
%
Delta-T
°C
Wind Press
QNH
hPa
Press
MSL
hPa
Rain since
9am
mm
Dir  Spd
km/h
Gust
km/h
Spd
kts
Gust
kts
23/09:30am 28.6 22.0 11.2 34 10.1 SSW 37 46 20 25 1003.7 1002.5 0.0
23/09:02am 28.7 22.5 9.9 31 10.6 WSW 33 57 18 31 1002.8 1001.7 0.0
23/09:00am 29.2 23.0 9.3 29 11.2 W 32 43 17 23 1002.9 1001.8 0.0
23/08:30am 33.9 28.2 11.1 25 13.4 NNW 32 39 17 21 1001.9 1000.8 0.0
23/08:00am 32.9 27.6 9.7 24 13.4 NNW 28 35 15 19 1001.3 1000.2 0.0
23/07:30am 32.7 27.3 9.5 24 13.3 NNW 28 35 15 19 1001.0 999.9 0.0
23/07:00am 32.6 26.3 8.8 23 13.5 NNW 32 35 17 19 1000.7 999.5 0.0
23/06:30am 33.2 26.2 8.6 22 13.9 NNW 35 44 19 24 1000.3 999.1 0.0
23/06:00am 33.1 26.2 6.4 19 14.6 NNW 32 39 17 21 1000.1 998.9 0.0
23/05:30am 33.2 26.0 4.9 17 15.1 NNW 32 39 17 21 1000.1 998.9 0.0
23/05:00am 33.2 25.6 4.0 16 15.4 NNW 33 43 18 23 999.9 998.7 0.0
23/04:30am 32.8 24.7 0.8 13 15.9 N 33 44 18 24 999.6 998.4 0.0
23/04:00am 33.1 24.9 -1.3 11 16.6 N 32 43 17 23 999.5 998.3 0.0
23/03:30am 32.8 25.5 -2.8 10 16.7 N 26 32 14 17 999.6 998.4 0.0
23/03:00am 32.8 26.1 -4.2 9 17.0 N 22 28 12 15 1000.0 998.8 0.0
23/02:30am 32.8 25.7 -4.2 9 16.9 N 24 32 13 17 1000.3 999.1 0.0
23/02:00am 33.2 25.6 -5.5 8 17.5 N 26 32 14 17 1000.5 999.3 0.0
23/01:30am 33.2 25.6 -5.5 8 17.4 N 26 33 14 18 1000.8 999.6 0.0
23/01:00am 33.4 26.2 -5.3 8 17.5 N 24 30 13 16 1000.9 999.7 0.0
23/12:30am 33.3 26.5 -5.4 8 17.4 N 22 28 12 15 1001.1 1000.0 0.0
23/12:00am 33.5 27.2 -3.7 9 17.3 N 20 24 11 13 1001.2 1000.1 0.0
 
Date/Time
EDT
Temp
°C
App
Temp
°C
Dew
Point
°C
Rel
Hum
%
Delta-T
°C
Wind Press
QNH
hPa
Press
MSL
hPa
Rain since
9am
mm
Dir  Spd
km/h
Gust
km/h
Spd
kts
Gust
kts
22/11:30pm 33.4 27.7 -3.7 9 17.2 N 17 20 9 11 1001.2 1000.1 0.0
22/11:00pm 34.0 28.0 -3.3 9 17.5 N 19 24 10 13 1001.4 1000.3 0.0
22/10:30pm 35.0 28.5 -2.6 9 17.9 N 22 28 12 15 1001.2 1000.1 0.0
22/10:00pm 35.4 30.1 -0.8 10 17.9 N 17 20 9 11 1001.2 1000.1 0.0
22/09:30pm 36.1 30.5 -0.3 10 18.1 N 19 22 10 12 1001.0 999.9 0.0
22/09:00pm 37.1 30.4 -1.0 9 19.0 NNW 24 32 13 17 1000.9 999.7 0.0
22/08:30pm 37.8 30.4 -0.5 9 19.2 NNW 28 33 15 18 1000.8 999.6 0.0
22/08:00pm 38.5 30.4 0.0 9 19.7 NNW 32 39 17 21 1000.6 999.4 0.0
22/07:30pm 39.2 30.8 -1.1 8 20.2 NNW 33 43 18 23 1000.5 999.3 0.0
22/07:00pm 40.1 31.4 -0.4 8 20.7 NNW 35 48 19 26 1000.4 999.2 0.0
22/06:30pm 40.0 31.6 -2.3 7 20.9 NNW 32 44 17 24 1000.6 999.4 0.0
22/06:00pm 39.8 32.2 -2.4 7 20.9 NNW 28 44 15 24 1000.8 999.6 0.0
22/05:30pm 40.4 32.8 -2.0 7 21.1 NNW 28 48 15 26 1001.1 1000.0 0.0
22/05:25pm 40.2 32.2 -2.1 7 21.0 NNW 30 48 16 26 1001.2 1000.1 0.0
22/05:00pm 40.0 31.4 -2.3 7 21.0 NW 33 44 18 24 1001.6 1000.5 0.0
22/04:42pm 40.5 32.9 -1.9 7 21.2 NNW 28 46 15 25 1001.8 1000.7 0.0
22/04:30pm 40.1 31.8 -0.4 8 20.6 NW 33 48 18 26 1002.0 1000.9 0.0
22/04:00pm 40.0 32.0 -2.3 7 21.0 NNW 30 41 16 22 1002.6 1001.5 0.0
22/03:30pm 39.7 31.3 -2.5 7 20.8 NNW 32 44 17 24 1003.1 1002.0 0.0
22/03:00pm 39.8 31.2 -2.4 7 20.9 NNW 33 43 18 23 1003.9 1002.7 0.0
22/02:30pm 39.1 31.0 -2.9 7 20.5 NNW 30 48 16 26 1004.5 1003.3 0.0
22/02:00pm 38.3 29.6 -3.5 7 20.2 NNW 33 46 18 25 1005.0 1003.8 0.0
22/01:30pm 38.1 29.6 -1.9 8 19.7 NNW 33 44 18 24 1005.5 1004.3 0.0
22/01:00pm 37.3 28.7 -2.4 8 19.3 NNW 33 46 18 25 1005.9 1004.7 0.0
22/12:30pm 37.6 29.2 -2.2 8 19.4 NNW 32 46 17 25 1006.3 1005.1 0.0
22/12:00pm 36.4 27.4 -0.1 10 18.3 NNW 37 50 20 27 1006.7 1005.6 0.0
22/11:30am 36.3 28.2 -0.2 10 18.2 N 32 46 17 25 1007.1 1006.0 0.0
22/11:00am 34.3 26.4 2.0 13 16.6 N 33 44 18 24 1007.5 1006.4 0.0
22/10:30am 33.9 26.6 2.7 14 16.1 N 30 41 16 22 1007.5 1006.4 0.0
22/10:00am 32.4 25.1 2.5 15 15.3 N 30 37 16 20 1007.7 1006.6 0.0
22/09:30am 31.6 26.0 3.6 17 14.5 NNE 22 28 12 15 1008.0 1006.9 0.0
22/09:00am 30.0 26.1 5.3 21 13.0 NE 15 20 8 11 1008.1 1007.0 0.0
22/08:30am 27.7 24.4 4.7 23 11.8 ENE 11 13 6 7 1008.1 1007.0 0.0
22/08:00am 25.1 22.1 4.3 26 10.5 E 9 11 5 6 1007.9 1006.8 0.0
22/07:30am 23.7 20.7 4.1 28 9.7 E 9 13 5 7 1007.8 1006.7 0.0
22/07:00am 22.7 20.0 3.8 29 9.3 E 7 9 4 5 1007.6 1006.5 0.0
22/06:30am 22.7 20.0 3.8 29 9.3 ENE 7 9 4 5 1007.5 1006.4 0.0
22/06:00am 22.6 19.9 3.7 29 9.3 ENE 7 9 4 5 1007.3 1006.2 0.0
22/05:30am 22.8 20.1 3.9 29 9.3 ENE 7 9 4 5 1007.3 1006.2 0.0
22/05:00am 22.3 19.5 2.9 28 9.3 E 7 9 4 5 1007.2 1006.1 0.0
22/04:30am 22.0 18.4 2.7 28 9.2 ENE 11 15 6 8 1007.2 1006.1 0.0
22/04:00am 23.0 19.8 3.0 27 9.7 N 9 9 5 5 1007.1 1006.0 0.0
22/03:30am 23.4 20.6 3.4 27 9.8 N 7 9 4 5 1007.1 1006.0 0.0
22/03:00am 23.2 20.3 2.7 26 9.9 N 7 7 4 4 1007.3 1006.2 0.0
22/02:30am 23.6 20.9 2.4 25 10.2 NNW 6 7 3 4 1007.5 1006.4 0.0
22/02:00am 23.9 22.2 2.1 24 10.4 CALM 0 0 0 0 1007.9 1006.8 0.0
22/01:30am 24.8 21.8 2.3 23 10.9 WSW 7 9 4 5 1008.2 1007.1 0.0
22/01:00am 25.4 22.2 2.8 23 11.1 W 9 9 5 5 1008.4 1007.3 0.0
22/12:30am 25.9 22.2 2.6 22 11.4 WNW 11 13 6 7 1008.5 1007.4 0.0
22/12:00am 26.5 23.2 2.4 21 11.8 NW 9 11 5 6 1008.5 1007.4 0.0
 
Date/Time
EDT
Temp
°C
App
Temp
°C
Dew
Point
°C
Rel
Hum
%
Delta-T
°C
Wind Press
QNH
hPa
Press
MSL
hPa
Rain since
9am
mm
Dir  Spd
km/h
Gust
km/h
Spd
kts
Gust
kts
21/11:30pm 27.3 24.5 3.1 21 12.1 WNW 7 9 4 5 1008.4 1007.3 0.0
21/11:00pm 27.9 24.7 2.9 20 12.5 NW 9 13 5 7 1008.3 1007.2 0.0
21/10:30pm 28.4 24.7 2.6 19 12.8 WNW 11 11 6 6 1008.3 1007.2 0.0
21/10:00pm 29.7 26.6 3.6 19 13.4 NW 9 11 5 6 1008.0 1006.9 0.0
21/09:30pm 30.7 28.3 5.2 20 13.5 NNW 7 9 4 5 1007.7 1006.6 0.0
21/09:00pm 31.2 28.3 4.9 19 13.9 N 9 11 5 6 1007.5 1006.4 0.0
21/08:30pm 31.3 28.8 6.4 21 13.4 NNE 9 11 5 6 1007.5 1006.4 0.0
21/08:00pm 31.8 28.4 6.1 20 13.9 N 13 17 7 9 1007.3 1006.2 0.0
21/07:30pm 31.7 28.3 6.0 20 13.8 N 13 22 7 12 1007.2 1006.1 0.0
21/07:00pm 32.1 29.5 6.3 20 14.0 NNW 9 20 5 11 1006.9 1005.8 0.0
21/06:30pm 32.7 29.3 6.1 19 14.4 WNW 13 20 7 11 1007.0 1005.9 0.0
21/06:00pm 31.9 30.0 7.5 22 13.5 NNW 7 19 4 10 1007.2 1006.1 0.0
21/05:30pm 32.4 30.2 8.0 22 13.6 WSW 9 17 5 9 1007.3 1006.2 0.0
21/05:00pm 32.0 29.0 7.6 22 13.5 NNW 13 20 7 11 1007.7 1006.6 0.0
21/04:30pm 31.2 29.1 8.2 24 12.8 S 9 13 5 7 1008.0 1006.9 0.0
21/04:00pm 30.9 27.6 8.0 24 12.7 W 15 22 8 12 1008.5 1007.4 0.0
21/03:30pm 31.4 28.7 9.0 25 12.6 WNW 13 20 7 11 1008.9 1007.8 0.0
21/03:00pm 29.9 27.6 8.9 27 11.7 N 11 22 6 12 1009.5 1008.4 0.0
21/02:30pm 29.9 26.9 9.4 28 11.5 NW 15 24 8 13 1010.0 1008.8 0.0
21/02:00pm 29.4 26.5 9.5 29 11.2 WNW 15 20 8 11 1010.6 1009.4 0.0
21/01:30pm 28.3 25.8 9.6 31 10.5 NE 13 20 7 11 1011.0 1009.8 0.0
21/01:00pm 28.3 26.8 10.5 33 10.1 N 9 15 5 8 1011.4 1010.2 0.0
21/12:30pm 27.3 25.3 10.1 34 9.7 WSW 11 28 6 15 1011.8 1010.6 0.0
21/12:00pm 27.0 26.2 11.1 37 9.1 ESE 6 13 3 7 1012.1 1010.9 0.0
21/11:30am 26.4 25.0 12.1 41 8.3 ESE 11 17 6 9 1012.4 1011.3 0.0
21/11:00am 25.3 23.8 11.8 43 7.7 SSE 11 19 6 10 1012.3 1011.1 0.0
21/10:30am 24.2 21.8 11.5 45 7.2 SSE 15 19 8 10 1012.5 1011.4 0.0
21/10:00am 23.5 20.9 11.9 48 6.6 S 17 24 9 13 1012.6 1011.5 0.0
21/09:30am 23.3 20.0 11.7 48 6.6 S 20 24 11 13 1012.6 1011.5 0.0
21/09:00am 22.3 18.6 11.4 50 6.1 SSW 22 28 12 15 1012.4 1011.3 0.0
21/08:30am 21.6 17.5 11.3 52 5.8 SSW 24 30 13 16 1012.0 1010.8 0.0
21/08:00am 21.1 17.3 11.2 53 5.5 SSW 22 24 12 13 1011.6 1010.4 0.0
21/07:30am 20.6 17.7 11.0 54 5.3 SSW 17 20 9 11 1011.1 1009.9 0.0
21/07:00am 20.2 17.6 10.6 54 5.3 SSW 15 17 8 9 1010.6 1009.4 0.0
21/06:30am 20.5 17.5 10.6 53 5.4 S 17 17 9 9 1010.2 1009.0 0.0
21/06:00am 20.7 18.4 10.5 52 5.6 S 13 15 7 8 1009.7 1008.6 0.0
21/05:30am 20.9 19.1 10.7 52 5.6 S 11 13 6 7 1009.3 1008.2 0.0
21/05:00am 21.0 19.9 10.5 51 5.8 SSE 7 9 4 5 1009.1 1008.0 0.0
21/04:30am 21.5 19.7 10.9 51 5.9 S 11 13 6 7 1008.8 1007.7 0.0
21/04:00am 21.7 20.5 10.2 48 6.3 S 7 11 4 6 1008.7 1007.6 0.0
21/03:30am 21.3 21.2 9.5 47 6.4 CALM 0 6 0 3 1008.8 1007.7 0.0
21/03:00am 21.5 21.1 8.4 43 6.9 CALM 0 6 0 3 1008.9 1007.8 0.0
21/02:30am 22.4 20.6 8.1 40 7.6 S 7 9 4 5 1009.0 1007.9 0.0
21/02:00am 23.0 20.3 7.5 37 8.2 S 11 13 6 7 1009.1 1008.0 0.0
21/01:30am 22.9 20.3 6.2 34 8.6 SW 9 11 5 6 1009.0 1007.9 0.0
21/01:00am 23.4 20.5 6.7 34 8.7 SW 11 11 6 6 1008.9 1007.8 0.0
21/12:30am 24.3 21.5 7.0 33 9.1 SSW 11 11 6 6 1009.2 1008.1 0.0
21/12:00am 24.9 21.8 7.1 32 9.4 SSW 13 17 7 9 1009.0 1007.9 0.0
 
Date/Time
EDT
Temp
°C
App
Temp
°C
Dew
Point
°C
Rel
Hum
%
Delta-T
°C
Wind Press
QNH
hPa
Press
MSL
hPa
Rain since
9am
mm
Dir  Spd
km/h
Gust
km/h
Spd
kts
Gust
kts
20/11:30pm 25.5 21.2 7.1 31 9.7 SSW 19 22 10 12 1009.0 1007.9 0.0
20/11:00pm 25.6 22.7 6.3 29 10.1 SSW 11 13 6 7 1008.8 1007.7 0.0
20/10:30pm 26.2 22.1 6.3 28 10.4 SSW 17 20 9 11 1008.4 1007.3 0.0
20/10:00pm 26.8 22.3 6.2 27 10.8 SSW 19 24 10 13 1008.1 1007.0 0.0
20/09:30pm 27.1 23.1 6.5 27 10.9 SSW 17 22 9 12 1007.6 1006.5 0.0
20/09:00pm 27.4 23.4 6.8 27 11.0 SSW 17 20 9 11 1007.3 1006.2 0.0
20/08:30pm 27.7 23.1 6.5 26 11.2 SW 20 28 11 15 1006.8 1005.7 0.0
20/08:00pm 28.3 23.9 6.4 25 11.7 SW 19 28 10 15 1006.5 1005.3 0.0
20/07:30pm 28.9 22.7 6.3 24 12.0 SW 28 35 15 19 1006.2 1005.0 0.0
20/07:00pm 29.0 23.2 6.4 24 12.1 SW 26 41 14 22 1006.0 1004.8 0.0
20/06:30pm 29.5 24.1 6.2 23 12.4 SW 24 37 13 20 1005.7 1004.5 0.0
20/06:00pm 29.0 22.7 5.8 23 12.3 SW 28 39 15 21 1005.6 1004.4 0.0
20/05:30pm 29.7 23.6 6.4 23 12.5 SW 28 43 15 23 1005.6 1004.4 0.0
20/05:00pm 29.3 24.2 6.0 23 12.4 WSW 22 37 12 20 1005.6 1004.4 0.0
20/04:34pm 29.8 23.7 6.5 23 12.5 W 28 46 15 25 1005.7 1004.5 0.0
20/04:30pm 29.0 22.7 5.8 23 12.2 WSW 28 41 15 22 1005.8 1004.6 0.0
20/04:00pm 28.7 22.6 6.7 25 11.8 WSW 28 37 15 20 1006.0 1004.8 0.0
20/03:30pm 28.6 22.8 7.8 27 11.3 WSW 28 37 15 20 1006.2 1005.0 0.0
20/03:02pm 28.1 22.2 7.4 27 11.2 SW 28 46 15 25 1006.3 1005.1 0.0
20/03:00pm 27.5 21.6 7.4 28 10.8 SW 28 44 15 24 1006.3 1005.1 0.0
20/02:35pm 26.7 20.5 7.7 30 10.2 WSW 30 46 16 25 1006.4 1005.2 0.0
20/02:30pm 27.9 22.2 8.2 29 10.8 SW 28 41 15 22 1006.5 1005.3 0.0
20/02:14pm 27.4 21.6 7.8 29 10.6 WSW 28 46 15 25 1006.5 1005.3 0.0
20/02:00pm 26.7 20.6 8.2 31 10.1 WSW 30 43 16 23 1006.7 1005.6 0.0
20/01:30pm 26.4 20.1 7.4 30 10.2 WSW 30 44 16 24 1007.0 1005.9 0.0
20/01:00pm 25.6 19.4 7.7 32 9.6 WSW 30 41 16 22 1007.2 1006.1 0.0
20/12:37pm 25.6 19.4 7.7 32 9.6 W 30 48 16 26 1007.1 1006.0 0.0
20/12:30pm 25.2 19.4 7.8 33 9.3 W 28 39 15 21 1007.2 1006.1 0.0
20/12:00pm 25.1 19.2 7.7 33 9.3 W 28 41 15 22 1007.2 1006.1 0.0
20/11:30am 24.3 18.6 6.6 32 9.2 WSW 26 37 14 20 1007.4 1006.3 0.0
20/11:00am 23.6 17.7 7.7 36 8.4 W 28 37 15 20 1007.4 1006.3 0.0
20/10:30am 22.8 17.4 8.1 39 7.8 WSW 26 35 14 19 1007.3 1006.2 0.0
20/10:00am 22.6 17.8 9.0 42 7.3 WSW 24 32 13 17 1007.0 1005.9 0.0

Other formats

Comma delimited format used in spreadsheet applications
http://www.bom.gov.au/fwo/IDN60801/IDN60801.95699.axf

JavaScript Object Notation format (JSON) in row-major order
http://www.bom.gov.au/fwo/IDN60801/IDN60801.95699.json

Data quality

Most of these data are generated automatically and are frequently updated. Quality checks on data are not normally performed. It is possible for incorrect values to appear. Refer to information at About Latest Weather Observations and please check the disclaimer before using these data.